sensor_id;sensor_type;location;lat;lon;timestamp;P1;durP1;ratioP1;P2;durP2;ratioP2
20020;SDS011;10171;42.694;23.318;2023-05-19T00:02:19;7.85;;;5.78;;
20020;SDS011;10171;42.694;23.318;2023-05-19T00:04:45;9.95;;;6.18;;
20020;SDS011;10171;42.694;23.318;2023-05-19T00:07:12;7.18;;;5.47;;
20020;SDS011;10171;42.694;23.318;2023-05-19T00:09:40;6.80;;;5.68;;
20020;SDS011;10171;42.694;23.318;2023-05-19T00:12:06;7.20;;;5.35;;
20020;SDS011;10171;42.694;23.318;2023-05-19T00:14:31;10.00;;;5.90;;
20020;SDS011;10171;42.694;23.318;2023-05-19T00:16:57;8.35;;;6.03;;
20020;SDS011;10171;42.694;23.318;2023-05-19T00:19:23;8.02;;;5.60;;
20020;SDS011;10171;42.694;23.318;2023-05-19T00:21:49;8.07;;;5.70;;
20020;SDS011;10171;42.694;23.318;2023-05-19T00:24:14;9.73;;;5.95;;
20020;SDS011;10171;42.694;23.318;2023-05-19T00:26:40;9.60;;;5.88;;
20020;SDS011;10171;42.694;23.318;2023-05-19T00:29:05;9.05;;;5.47;;
20020;SDS011;10171;42.694;23.318;2023-05-19T00:31:30;9.80;;;6.88;;
20020;SDS011;10171;42.694;23.318;2023-05-19T00:33:58;9.77;;;6.75;;
20020;SDS011;10171;42.694;23.318;2023-05-19T00:36:23;9.27;;;6.78;;
20020;SDS011;10171;42.694;23.318;2023-05-19T00:38:49;7.85;;;5.85;;
20020;SDS011;10171;42.694;23.318;2023-05-19T00:41:15;8.15;;;6.38;;
20020;SDS011;10171;42.694;23.318;2023-05-19T00:43:40;8.38;;;6.25;;
20020;SDS011;10171;42.694;23.318;2023-05-19T00:46:05;9.00;;;6.38;;
20020;SDS011;10171;42.694;23.318;2023-05-19T00:48:31;10.77;;;6.97;;
20020;SDS011;10171;42.694;23.318;2023-05-19T00:50:56;8.57;;;6.65;;
20020;SDS011;10171;42.694;23.318;2023-05-19T00:53:30;8.68;;;6.72;;
20020;SDS011;10171;42.694;23.318;2023-05-19T00:55:56;10.20;;;7.43;;
20020;SDS011;10171;42.694;23.318;2023-05-19T00:58:22;10.15;;;7.00;;
20020;SDS011;10171;42.694;23.318;2023-05-19T01:00:49;10.55;;;7.80;;
20020;SDS011;10171;42.694;23.318;2023-05-19T01:03:14;14.68;;;7.72;;
20020;SDS011;10171;42.694;23.318;2023-05-19T01:05:44;10.18;;;7.40;;
20020;SDS011;10171;42.694;23.318;2023-05-19T01:08:09;10.13;;;7.00;;
20020;SDS011;10171;42.694;23.318;2023-05-19T01:10:35;9.75;;;7.55;;
20020;SDS011;10171;42.694;23.318;2023-05-19T01:13:04;11.75;;;6.88;;
20020;SDS011;10171;42.694;23.318;2023-05-19T01:15:31;11.55;;;7.55;;
20020;SDS011;10171;42.694;23.318;2023-05-19T01:20:23;11.85;;;8.02;;
20020;SDS011;10171;42.694;23.318;2023-05-19T01:28:07;13.68;;;8.65;;
20020;SDS011;10171;42.694;23.318;2023-05-19T01:30:51;13.80;;;9.38;;
20020;SDS011;10171;42.694;23.318;2023-05-19T01:33:17;13.05;;;8.95;;
20020;SDS011;10171;42.694;23.318;2023-05-19T01:35:43;13.48;;;8.82;;
20020;SDS011;10171;42.694;23.318;2023-05-19T01:38:10;13.05;;;8.70;;
20020;SDS011;10171;42.694;23.318;2023-05-19T01:40:37;17.27;;;10.32;;
20020;SDS011;10171;42.694;23.318;2023-05-19T01:43:04;12.52;;;9.02;;
20020;SDS011;10171;42.694;23.318;2023-05-19T01:45:32;13.20;;;9.02;;
20020;SDS011;10171;42.694;23.318;2023-05-19T01:47:59;14.60;;;8.85;;
20020;SDS011;10171;42.694;23.318;2023-05-19T01:50:25;12.68;;;7.53;;
20020;SDS011;10171;42.694;23.318;2023-05-19T01:52:50;13.80;;;9.20;;
20020;SDS011;10171;42.694;23.318;2023-05-19T01:55:16;16.15;;;8.57;;
20020;SDS011;10171;42.694;23.318;2023-05-19T02:10:51;17.20;;;9.88;;
20020;SDS011;10171;42.694;23.318;2023-05-19T02:13:19;14.05;;;9.27;;
20020;SDS011;10171;42.694;23.318;2023-05-19T02:15:45;15.82;;;9.43;;
20020;SDS011;10171;42.694;23.318;2023-05-19T02:18:12;17.88;;;9.70;;
20020;SDS011;10171;42.694;23.318;2023-05-19T02:20:41;13.65;;;8.95;;
20020;SDS011;10171;42.694;23.318;2023-05-19T02:23:07;14.25;;;9.10;;
20020;SDS011;10171;42.694;23.318;2023-05-19T02:25:32;13.88;;;9.27;;
20020;SDS011;10171;42.694;23.318;2023-05-19T02:27:57;14.98;;;9.40;;
20020;SDS011;10171;42.694;23.318;2023-05-19T02:30:23;18.08;;;10.18;;
20020;SDS011;10171;42.694;23.318;2023-05-19T02:32:48;15.95;;;9.60;;
20020;SDS011;10171;42.694;23.318;2023-05-19T02:35:13;15.63;;;10.18;;
20020;SDS011;10171;42.694;23.318;2023-05-19T02:37:39;16.15;;;10.05;;
20020;SDS011;10171;42.694;23.318;2023-05-19T02:40:06;15.98;;;10.00;;
20020;SDS011;10171;42.694;23.318;2023-05-19T02:42:39;15.30;;;9.63;;
20020;SDS011;10171;42.694;23.318;2023-05-19T02:45:04;18.00;;;10.38;;
20020;SDS011;10171;42.694;23.318;2023-05-19T02:47:30;19.25;;;10.45;;
20020;SDS011;10171;42.694;23.318;2023-05-19T02:49:55;16.35;;;10.52;;
20020;SDS011;10171;42.694;23.318;2023-05-19T02:52:20;13.80;;;8.75;;
20020;SDS011;10171;42.694;23.318;2023-05-19T02:54:46;15.38;;;9.73;;
20020;SDS011;10171;42.694;23.318;2023-05-19T02:57:11;16.17;;;10.10;;
20020;SDS011;10171;42.694;23.318;2023-05-19T02:59:36;16.05;;;9.63;;
20020;SDS011;10171;42.694;23.318;2023-05-19T03:02:02;16.67;;;10.23;;
20020;SDS011;10171;42.694;23.318;2023-05-19T03:04:28;19.25;;;10.35;;
20020;SDS011;10171;42.694;23.318;2023-05-19T03:06:54;16.42;;;10.30;;
20020;SDS011;10171;42.694;23.318;2023-05-19T03:09:19;17.25;;;9.55;;
20020;SDS011;10171;42.694;23.318;2023-05-19T03:11:44;14.02;;;9.20;;
20020;SDS011;10171;42.694;23.318;2023-05-19T03:14:10;15.00;;;9.73;;
20020;SDS011;10171;42.694;23.318;2023-05-19T03:16:39;13.85;;;8.85;;
20020;SDS011;10171;42.694;23.318;2023-05-19T03:19:06;14.23;;;9.20;;
20020;SDS011;10171;42.694;23.318;2023-05-19T03:21:31;17.05;;;10.30;;
20020;SDS011;10171;42.694;23.318;2023-05-19T03:23:58;16.05;;;9.98;;
20020;SDS011;10171;42.694;23.318;2023-05-19T03:26:24;17.85;;;10.50;;
20020;SDS011;10171;42.694;23.318;2023-05-19T03:28:50;19.38;;;11.10;;
20020;SDS011;10171;42.694;23.318;2023-05-19T03:31:15;18.80;;;10.52;;
20020;SDS011;10171;42.694;23.318;2023-05-19T03:33:41;20.35;;;10.95;;
20020;SDS011;10171;42.694;23.318;2023-05-19T03:36:06;20.73;;;11.43;;
20020;SDS011;10171;42.694;23.318;2023-05-19T03:38:31;17.48;;;10.95;;
20020;SDS011;10171;42.694;23.318;2023-05-19T03:40:57;16.33;;;10.35;;
20020;SDS011;10171;42.694;23.318;2023-05-19T03:43:22;20.45;;;11.63;;
20020;SDS011;10171;42.694;23.318;2023-05-19T03:45:51;17.70;;;10.30;;
20020;SDS011;10171;42.694;23.318;2023-05-19T03:48:17;16.33;;;11.10;;
20020;SDS011;10171;42.694;23.318;2023-05-19T03:50:42;17.05;;;10.57;;
20020;SDS011;10171;42.694;23.318;2023-05-19T03:53:08;18.25;;;11.75;;
20020;SDS011;10171;42.694;23.318;2023-05-19T03:55:33;16.88;;;10.68;;
20020;SDS011;10171;42.694;23.318;2023-05-19T03:58:01;17.00;;;10.70;;
20020;SDS011;10171;42.694;23.318;2023-05-19T04:00:27;16.85;;;10.15;;
20020;SDS011;10171;42.694;23.318;2023-05-19T04:02:52;18.05;;;10.15;;
20020;SDS011;10171;42.694;23.318;2023-05-19T04:05:18;18.02;;;11.38;;
20020;SDS011;10171;42.694;23.318;2023-05-19T04:07:43;17.80;;;10.43;;
20020;SDS011;10171;42.694;23.318;2023-05-19T04:10:10;18.23;;;10.57;;
20020;SDS011;10171;42.694;23.318;2023-05-19T04:12:36;17.38;;;10.82;;
20020;SDS011;10171;42.694;23.318;2023-05-19T04:15:01;16.33;;;10.95;;
20020;SDS011;10171;42.694;23.318;2023-05-19T04:17:27;17.70;;;10.93;;
20020;SDS011;10171;42.694;23.318;2023-05-19T04:19:52;20.13;;;10.32;;
20020;SDS011;10171;42.694;23.318;2023-05-19T04:22:18;17.83;;;11.02;;
20020;SDS011;10171;42.694;23.318;2023-05-19T04:24:44;19.77;;;10.38;;
20020;SDS011;10171;42.694;23.318;2023-05-19T04:27:10;16.13;;;9.85;;
20020;SDS011;10171;42.694;23.318;2023-05-19T04:29:36;16.88;;;10.25;;
20020;SDS011;10171;42.694;23.318;2023-05-19T04:32:02;20.42;;;10.25;;
20020;SDS011;10171;42.694;23.318;2023-05-19T04:34:31;16.02;;;9.93;;
20020;SDS011;10171;42.694;23.318;2023-05-19T04:36:57;17.25;;;10.65;;
20020;SDS011;10171;42.694;23.318;2023-05-19T04:39:23;18.20;;;10.80;;
20020;SDS011;10171;42.694;23.318;2023-05-19T04:41:48;16.90;;;10.30;;
20020;SDS011;10171;42.694;23.318;2023-05-19T04:44:14;17.67;;;10.73;;
20020;SDS011;10171;42.694;23.318;2023-05-19T04:46:42;18.73;;;10.60;;
20020;SDS011;10171;42.694;23.318;2023-05-19T04:49:09;17.63;;;10.73;;
20020;SDS011;10171;42.694;23.318;2023-05-19T04:51:36;17.95;;;10.45;;
20020;SDS011;10171;42.694;23.318;2023-05-19T04:54:05;17.42;;;11.23;;
20020;SDS011;10171;42.694;23.318;2023-05-19T04:56:30;16.17;;;9.98;;
20020;SDS011;10171;42.694;23.318;2023-05-19T04:58:55;18.70;;;12.05;;
20020;SDS011;10171;42.694;23.318;2023-05-19T05:01:21;16.30;;;11.25;;
20020;SDS011;10171;42.694;23.318;2023-05-19T05:03:50;18.27;;;11.13;;
20020;SDS011;10171;42.694;23.318;2023-05-19T05:06:15;16.83;;;10.80;;
20020;SDS011;10171;42.694;23.318;2023-05-19T05:08:40;19.45;;;11.00;;
20020;SDS011;10171;42.694;23.318;2023-05-19T05:11:06;17.45;;;10.30;;
20020;SDS011;10171;42.694;23.318;2023-05-19T05:13:32;18.10;;;11.10;;
20020;SDS011;10171;42.694;23.318;2023-05-19T05:15:57;18.67;;;11.48;;
20020;SDS011;10171;42.694;23.318;2023-05-19T05:18:23;16.02;;;10.32;;
20020;SDS011;10171;42.694;23.318;2023-05-19T05:20:48;19.40;;;10.50;;
20020;SDS011;10171;42.694;23.318;2023-05-19T05:23:14;18.48;;;10.88;;
20020;SDS011;10171;42.694;23.318;2023-05-19T05:25:41;20.17;;;10.63;;
20020;SDS011;10171;42.694;23.318;2023-05-19T05:28:06;18.45;;;10.95;;
20020;SDS011;10171;42.694;23.318;2023-05-19T05:30:35;16.17;;;10.20;;
20020;SDS011;10171;42.694;23.318;2023-05-19T05:33:00;18.60;;;10.73;;
20020;SDS011;10171;42.694;23.318;2023-05-19T05:35:26;19.58;;;11.27;;
20020;SDS011;10171;42.694;23.318;2023-05-19T05:37:51;17.52;;;11.10;;
20020;SDS011;10171;42.694;23.318;2023-05-19T05:40:16;17.13;;;10.13;;
20020;SDS011;10171;42.694;23.318;2023-05-19T05:42:42;18.27;;;10.52;;
20020;SDS011;10171;42.694;23.318;2023-05-19T05:45:07;19.60;;;11.18;;
20020;SDS011;10171;42.694;23.318;2023-05-19T05:47:33;18.42;;;9.48;;
20020;SDS011;10171;42.694;23.318;2023-05-19T05:50:02;16.50;;;9.63;;
20020;SDS011;10171;42.694;23.318;2023-05-19T05:52:28;16.30;;;10.65;;
20020;SDS011;10171;42.694;23.318;2023-05-19T05:54:54;18.25;;;9.57;;
20020;SDS011;10171;42.694;23.318;2023-05-19T05:57:20;16.17;;;10.10;;
20020;SDS011;10171;42.694;23.318;2023-05-19T05:59:46;17.77;;;9.88;;
20020;SDS011;10171;42.694;23.318;2023-05-19T06:02:11;19.00;;;9.30;;
20020;SDS011;10171;42.694;23.318;2023-05-19T06:04:37;15.20;;;9.55;;
20020;SDS011;10171;42.694;23.318;2023-05-19T06:07:02;17.30;;;10.30;;
20020;SDS011;10171;42.694;23.318;2023-05-19T06:09:28;16.45;;;9.80;;
20020;SDS011;10171;42.694;23.318;2023-05-19T06:11:54;18.23;;;10.23;;
20020;SDS011;10171;42.694;23.318;2023-05-19T06:14:19;16.65;;;9.18;;
20020;SDS011;10171;42.694;23.318;2023-05-19T06:16:45;14.30;;;8.75;;
20020;SDS011;10171;42.694;23.318;2023-05-19T06:19:12;15.18;;;8.75;;
20020;SDS011;10171;42.694;23.318;2023-05-19T06:21:37;12.98;;;8.35;;
20020;SDS011;10171;42.694;23.318;2023-05-19T06:24:03;12.93;;;8.88;;
20020;SDS011;10171;42.694;23.318;2023-05-19T06:26:28;14.23;;;9.73;;
20020;SDS011;10171;42.694;23.318;2023-05-19T06:28:53;14.25;;;8.77;;
20020;SDS011;10171;42.694;23.318;2023-05-19T06:31:19;15.18;;;9.43;;
20020;SDS011;10171;42.694;23.318;2023-05-19T06:33:44;14.15;;;8.48;;
20020;SDS011;10171;42.694;23.318;2023-05-19T06:36:09;12.60;;;7.82;;
20020;SDS011;10171;42.694;23.318;2023-05-19T06:38:36;14.60;;;9.20;;
20020;SDS011;10171;42.694;23.318;2023-05-19T06:41:01;14.07;;;8.55;;
20020;SDS011;10171;42.694;23.318;2023-05-19T06:43:26;14.95;;;9.02;;
20020;SDS011;10171;42.694;23.318;2023-05-19T06:45:52;13.32;;;8.38;;
20020;SDS011;10171;42.694;23.318;2023-05-19T06:48:18;11.10;;;7.80;;
20020;SDS011;10171;42.694;23.318;2023-05-19T06:50:43;10.10;;;6.88;;
20020;SDS011;10171;42.694;23.318;2023-05-19T06:53:08;12.60;;;7.07;;
20020;SDS011;10171;42.694;23.318;2023-05-19T06:55:33;10.45;;;7.30;;
20020;SDS011;10171;42.694;23.318;2023-05-19T06:57:59;12.52;;;7.53;;
20020;SDS011;10171;42.694;23.318;2023-05-19T07:00:24;10.30;;;6.72;;
20020;SDS011;10171;42.694;23.318;2023-05-19T07:02:50;12.30;;;7.10;;
20020;SDS011;10171;42.694;23.318;2023-05-19T07:05:15;11.52;;;7.35;;
20020;SDS011;10171;42.694;23.318;2023-05-19T07:07:41;11.02;;;7.03;;
20020;SDS011;10171;42.694;23.318;2023-05-19T07:10:06;11.18;;;6.30;;
20020;SDS011;10171;42.694;23.318;2023-05-19T07:12:31;9.57;;;6.95;;
20020;SDS011;10171;42.694;23.318;2023-05-19T07:14:57;11.45;;;7.32;;
20020;SDS011;10171;42.694;23.318;2023-05-19T07:17:22;11.85;;;7.47;;
20020;SDS011;10171;42.694;23.318;2023-05-19T07:19:47;10.98;;;7.72;;
20020;SDS011;10171;42.694;23.318;2023-05-19T07:22:13;13.00;;;7.72;;
20020;SDS011;10171;42.694;23.318;2023-05-19T07:24:38;11.38;;;7.20;;
20020;SDS011;10171;42.694;23.318;2023-05-19T07:27:04;12.35;;;7.88;;
20020;SDS011;10171;42.694;23.318;2023-05-19T07:29:29;13.30;;;7.90;;
20020;SDS011;10171;42.694;23.318;2023-05-19T07:31:55;10.45;;;7.30;;
20020;SDS011;10171;42.694;23.318;2023-05-19T07:34:22;15.05;;;7.40;;
20020;SDS011;10171;42.694;23.318;2023-05-19T07:36:47;8.65;;;6.85;;
20020;SDS011;10171;42.694;23.318;2023-05-19T07:39:13;11.48;;;8.10;;
20020;SDS011;10171;42.694;23.318;2023-05-19T07:41:38;11.45;;;7.28;;
20020;SDS011;10171;42.694;23.318;2023-05-19T07:44:04;11.23;;;7.75;;
20020;SDS011;10171;42.694;23.318;2023-05-19T07:46:31;10.20;;;7.40;;
20020;SDS011;10171;42.694;23.318;2023-05-19T07:48:57;11.30;;;7.50;;
20020;SDS011;10171;42.694;23.318;2023-05-19T07:51:22;12.93;;;8.18;;
20020;SDS011;10171;42.694;23.318;2023-05-19T07:53:47;12.60;;;7.90;;
20020;SDS011;10171;42.694;23.318;2023-05-19T07:56:13;12.35;;;7.85;;
20020;SDS011;10171;42.694;23.318;2023-05-19T07:58:38;15.52;;;8.52;;
20020;SDS011;10171;42.694;23.318;2023-05-19T08:01:04;11.07;;;7.85;;
20020;SDS011;10171;42.694;23.318;2023-05-19T08:03:29;11.40;;;7.97;;
20020;SDS011;10171;42.694;23.318;2023-05-19T08:05:55;11.85;;;8.80;;
20020;SDS011;10171;42.694;23.318;2023-05-19T08:08:20;14.13;;;8.18;;
20020;SDS011;10171;42.694;23.318;2023-05-19T08:10:45;13.75;;;8.85;;
20020;SDS011;10171;42.694;23.318;2023-05-19T08:13:11;12.48;;;8.82;;
20020;SDS011;10171;42.694;23.318;2023-05-19T08:15:36;14.63;;;8.98;;
20020;SDS011;10171;42.694;23.318;2023-05-19T08:18:02;15.00;;;8.82;;
20020;SDS011;10171;42.694;23.318;2023-05-19T08:20:29;12.88;;;8.52;;
20020;SDS011;10171;42.694;23.318;2023-05-19T08:22:54;23.35;;;14.80;;
20020;SDS011;10171;42.694;23.318;2023-05-19T08:25:20;14.75;;;8.93;;
20020;SDS011;10171;42.694;23.318;2023-05-19T08:27:45;16.90;;;9.35;;
20020;SDS011;10171;42.694;23.318;2023-05-19T08:30:10;11.90;;;8.68;;
20020;SDS011;10171;42.694;23.318;2023-05-19T08:32:36;15.43;;;9.13;;
20020;SDS011;10171;42.694;23.318;2023-05-19T08:35:01;14.02;;;8.73;;
20020;SDS011;10171;42.694;23.318;2023-05-19T08:37:26;13.40;;;8.57;;
20020;SDS011;10171;42.694;23.318;2023-05-19T08:39:52;17.40;;;9.40;;
20020;SDS011;10171;42.694;23.318;2023-05-19T08:42:17;16.00;;;9.77;;
20020;SDS011;10171;42.694;23.318;2023-05-19T08:44:42;14.90;;;9.50;;
20020;SDS011;10171;42.694;23.318;2023-05-19T08:47:08;13.10;;;9.23;;
20020;SDS011;10171;42.694;23.318;2023-05-19T08:49:41;13.27;;;9.07;;
20020;SDS011;10171;42.694;23.318;2023-05-19T08:52:21;13.00;;;9.32;;
20020;SDS011;10171;42.694;23.318;2023-05-19T08:54:49;11.07;;;8.38;;
20020;SDS011;10171;42.694;23.318;2023-05-19T08:57:17;13.25;;;9.57;;
20020;SDS011;10171;42.694;23.318;2023-05-19T08:59:43;16.85;;;9.75;;
20020;SDS011;10171;42.694;23.318;2023-05-19T09:02:08;14.48;;;9.07;;
20020;SDS011;10171;42.694;23.318;2023-05-19T09:04:35;16.33;;;9.60;;
20020;SDS011;10171;42.694;23.318;2023-05-19T09:07:00;13.23;;;9.38;;
20020;SDS011;10171;42.694;23.318;2023-05-19T09:09:27;17.45;;;9.85;;
20020;SDS011;10171;42.694;23.318;2023-05-19T09:11:53;15.00;;;9.60;;
20020;SDS011;10171;42.694;23.318;2023-05-19T09:14:18;15.90;;;10.10;;
20020;SDS011;10171;42.694;23.318;2023-05-19T09:16:44;12.73;;;9.02;;
20020;SDS011;10171;42.694;23.318;2023-05-19T09:19:12;13.13;;;8.85;;
20020;SDS011;10171;42.694;23.318;2023-05-19T09:21:39;19.98;;;10.65;;
20020;SDS011;10171;42.694;23.318;2023-05-19T09:24:04;18.55;;;11.60;;
20020;SDS011;10171;42.694;23.318;2023-05-19T09:29:12;17.80;;;10.32;;
20020;SDS011;10171;42.694;23.318;2023-05-19T09:31:38;15.05;;;10.20;;
20020;SDS011;10171;42.694;23.318;2023-05-19T09:34:03;16.23;;;10.77;;
20020;SDS011;10171;42.694;23.318;2023-05-19T09:36:28;15.95;;;9.60;;
20020;SDS011;10171;42.694;23.318;2023-05-19T09:38:55;16.58;;;10.48;;
20020;SDS011;10171;42.694;23.318;2023-05-19T09:41:20;22.13;;;10.90;;
20020;SDS011;10171;42.694;23.318;2023-05-19T09:43:52;15.88;;;11.00;;
20020;SDS011;10171;42.694;23.318;2023-05-19T09:46:20;14.48;;;9.90;;
20020;SDS011;10171;42.694;23.318;2023-05-19T09:48:55;36.65;;;13.05;;
20020;SDS011;10171;42.694;23.318;2023-05-19T09:51:22;18.50;;;11.45;;
20020;SDS011;10171;42.694;23.318;2023-05-19T09:53:51;16.73;;;10.52;;
20020;SDS011;10171;42.694;23.318;2023-05-19T09:56:17;14.40;;;9.93;;
20020;SDS011;10171;42.694;23.318;2023-05-19T09:58:47;17.80;;;10.95;;
20020;SDS011;10171;42.694;23.318;2023-05-19T10:01:12;17.50;;;11.73;;
20020;SDS011;10171;42.694;23.318;2023-05-19T10:03:39;17.90;;;11.25;;
20020;SDS011;10171;42.694;23.318;2023-05-19T10:06:04;19.10;;;10.60;;
20020;SDS011;10171;42.694;23.318;2023-05-19T10:08:32;14.55;;;10.25;;
20020;SDS011;10171;42.694;23.318;2023-05-19T10:10:58;17.38;;;10.00;;
20020;SDS011;10171;42.694;23.318;2023-05-19T10:13:24;15.95;;;9.85;;
20020;SDS011;10171;42.694;23.318;2023-05-19T10:15:49;15.52;;;10.02;;
20020;SDS011;10171;42.694;23.318;2023-05-19T10:18:16;14.43;;;9.02;;
20020;SDS011;10171;42.694;23.318;2023-05-19T10:20:42;17.73;;;10.05;;
20020;SDS011;10171;42.694;23.318;2023-05-19T10:23:08;15.00;;;10.13;;
20020;SDS011;10171;42.694;23.318;2023-05-19T10:25:33;15.65;;;10.10;;
20020;SDS011;10171;42.694;23.318;2023-05-19T10:28:12;12.85;;;9.18;;
20020;SDS011;10171;42.694;23.318;2023-05-19T10:30:40;13.60;;;10.00;;
20020;SDS011;10171;42.694;23.318;2023-05-19T10:33:09;16.75;;;9.75;;
20020;SDS011;10171;42.694;23.318;2023-05-19T10:40:49;12.65;;;9.32;;
20020;SDS011;10171;42.694;23.318;2023-05-19T10:46:12;17.50;;;10.85;;
20020;SDS011;10171;42.694;23.318;2023-05-19T10:48:38;17.27;;;10.68;;
20020;SDS011;10171;42.694;23.318;2023-05-19T10:51:07;15.40;;;10.13;;
20020;SDS011;10171;42.694;23.318;2023-05-19T10:53:36;14.55;;;10.10;;
20020;SDS011;10171;42.694;23.318;2023-05-19T10:56:04;16.77;;;10.80;;
20020;SDS011;10171;42.694;23.318;2023-05-19T11:01:09;12.18;;;9.05;;
20020;SDS011;10171;42.694;23.318;2023-05-19T11:03:47;14.38;;;9.15;;
20020;SDS011;10171;42.694;23.318;2023-05-19T11:08:54;12.82;;;8.75;;
20020;SDS011;10171;42.694;23.318;2023-05-19T11:11:22;13.25;;;8.70;;
20020;SDS011;10171;42.694;23.318;2023-05-19T11:13:54;12.63;;;8.77;;
20020;SDS011;10171;42.694;23.318;2023-05-19T11:16:27;14.55;;;10.73;;
20020;SDS011;10171;42.694;23.318;2023-05-19T11:18:53;16.75;;;10.07;;
20020;SDS011;10171;42.694;23.318;2023-05-19T11:21:19;12.95;;;9.63;;
20020;SDS011;10171;42.694;23.318;2023-05-19T11:23:45;14.98;;;9.10;;
20020;SDS011;10171;42.694;23.318;2023-05-19T11:26:10;13.93;;;10.55;;
20020;SDS011;10171;42.694;23.318;2023-05-19T11:28:36;15.77;;;9.30;;
20020;SDS011;10171;42.694;23.318;2023-05-19T11:31:03;14.88;;;10.07;;
20020;SDS011;10171;42.694;23.318;2023-05-19T11:33:31;19.23;;;11.23;;
20020;SDS011;10171;42.694;23.318;2023-05-19T11:35:57;21.95;;;12.10;;
20020;SDS011;10171;42.694;23.318;2023-05-19T11:38:22;17.38;;;11.75;;
20020;SDS011;10171;42.694;23.318;2023-05-19T11:40:48;18.08;;;10.50;;
20020;SDS011;10171;42.694;23.318;2023-05-19T11:43:16;18.05;;;11.23;;
20020;SDS011;10171;42.694;23.318;2023-05-19T11:45:42;15.65;;;11.02;;
20020;SDS011;10171;42.694;23.318;2023-05-19T11:48:10;14.93;;;9.57;;
20020;SDS011;10171;42.694;23.318;2023-05-19T11:50:36;16.40;;;8.98;;
20020;SDS011;10171;42.694;23.318;2023-05-19T11:53:04;15.50;;;9.50;;
20020;SDS011;10171;42.694;23.318;2023-05-19T11:55:30;15.90;;;10.13;;
20020;SDS011;10171;42.694;23.318;2023-05-19T11:57:56;19.95;;;12.05;;
20020;SDS011;10171;42.694;23.318;2023-05-19T12:00:26;20.67;;;11.43;;
20020;SDS011;10171;42.694;23.318;2023-05-19T12:02:51;13.27;;;9.82;;
20020;SDS011;10171;42.694;23.318;2023-05-19T12:05:20;17.63;;;9.90;;
20020;SDS011;10171;42.694;23.318;2023-05-19T12:07:47;15.80;;;10.40;;
20020;SDS011;10171;42.694;23.318;2023-05-19T12:12:49;13.45;;;8.85;;
20020;SDS011;10171;42.694;23.318;2023-05-19T12:15:17;11.98;;;8.35;;
20020;SDS011;10171;42.694;23.318;2023-05-19T12:17:42;14.00;;;7.53;;
20020;SDS011;10171;42.694;23.318;2023-05-19T12:20:10;11.70;;;7.82;;
20020;SDS011;10171;42.694;23.318;2023-05-19T12:22:36;10.23;;;7.13;;
20020;SDS011;10171;42.694;23.318;2023-05-19T12:25:02;12.52;;;7.63;;
20020;SDS011;10171;42.694;23.318;2023-05-19T12:27:29;11.90;;;8.00;;
20020;SDS011;10171;42.694;23.318;2023-05-19T12:29:55;12.02;;;8.10;;
20020;SDS011;10171;42.694;23.318;2023-05-19T12:32:23;14.82;;;8.88;;
20020;SDS011;10171;42.694;23.318;2023-05-19T12:34:49;11.00;;;7.93;;
20020;SDS011;10171;42.694;23.318;2023-05-19T12:37:15;10.32;;;7.43;;
20020;SDS011;10171;42.694;23.318;2023-05-19T12:39:41;12.80;;;7.40;;
20020;SDS011;10171;42.694;23.318;2023-05-19T12:42:10;11.93;;;7.55;;
20020;SDS011;10171;42.694;23.318;2023-05-19T12:44:43;9.57;;;7.38;;
20020;SDS011;10171;42.694;23.318;2023-05-19T12:47:10;11.45;;;7.68;;
20020;SDS011;10171;42.694;23.318;2023-05-19T12:49:36;11.98;;;7.20;;
20020;SDS011;10171;42.694;23.318;2023-05-19T12:52:01;11.80;;;7.05;;
20020;SDS011;10171;42.694;23.318;2023-05-19T12:54:28;9.80;;;6.60;;
20020;SDS011;10171;42.694;23.318;2023-05-19T12:56:57;9.65;;;6.72;;
20020;SDS011;10171;42.694;23.318;2023-05-19T12:59:23;11.20;;;7.22;;
20020;SDS011;10171;42.694;23.318;2023-05-19T13:01:58;12.43;;;6.55;;
20020;SDS011;10171;42.694;23.318;2023-05-19T13:04:24;10.70;;;7.57;;
20020;SDS011;10171;42.694;23.318;2023-05-19T13:06:50;10.30;;;7.03;;
20020;SDS011;10171;42.694;23.318;2023-05-19T13:09:15;9.85;;;6.63;;
20020;SDS011;10171;42.694;23.318;2023-05-19T13:11:44;10.75;;;7.03;;
20020;SDS011;10171;42.694;23.318;2023-05-19T13:14:17;10.95;;;7.00;;
20020;SDS011;10171;42.694;23.318;2023-05-19T13:16:43;8.73;;;6.60;;
20020;SDS011;10171;42.694;23.318;2023-05-19T13:19:10;10.65;;;6.78;;
20020;SDS011;10171;42.694;23.318;2023-05-19T13:21:35;12.70;;;7.85;;
20020;SDS011;10171;42.694;23.318;2023-05-19T13:24:01;9.77;;;6.85;;
20020;SDS011;10171;42.694;23.318;2023-05-19T13:26:27;9.18;;;7.07;;
20020;SDS011;10171;42.694;23.318;2023-05-19T13:28:53;8.30;;;6.30;;
20020;SDS011;10171;42.694;23.318;2023-05-19T13:31:19;8.52;;;7.45;;
20020;SDS011;10171;42.694;23.318;2023-05-19T13:33:44;9.85;;;6.82;;
20020;SDS011;10171;42.694;23.318;2023-05-19T13:36:09;7.25;;;5.78;;
20020;SDS011;10171;42.694;23.318;2023-05-19T13:38:35;9.10;;;6.78;;
20020;SDS011;10171;42.694;23.318;2023-05-19T13:41:00;9.93;;;7.35;;
20020;SDS011;10171;42.694;23.318;2023-05-19T13:43:25;13.25;;;8.45;;
20020;SDS011;10171;42.694;23.318;2023-05-19T13:45:51;9.98;;;6.80;;
20020;SDS011;10171;42.694;23.318;2023-05-19T13:48:16;11.70;;;7.45;;
20020;SDS011;10171;42.694;23.318;2023-05-19T13:50:42;11.73;;;6.45;;
20020;SDS011;10171;42.694;23.318;2023-05-19T13:53:07;9.85;;;7.43;;
20020;SDS011;10171;42.694;23.318;2023-05-19T13:55:33;9.73;;;7.30;;
20020;SDS011;10171;42.694;23.318;2023-05-19T13:57:58;14.05;;;8.15;;
20020;SDS011;10171;42.694;23.318;2023-05-19T14:00:23;9.90;;;7.20;;
20020;SDS011;10171;42.694;23.318;2023-05-19T14:02:49;11.73;;;7.60;;
20020;SDS011;10171;42.694;23.318;2023-05-19T14:05:14;10.50;;;7.72;;
20020;SDS011;10171;42.694;23.318;2023-05-19T14:07:39;12.48;;;7.57;;
20020;SDS011;10171;42.694;23.318;2023-05-19T14:10:05;11.57;;;6.80;;
20020;SDS011;10171;42.694;23.318;2023-05-19T14:12:31;12.10;;;7.72;;
20020;SDS011;10171;42.694;23.318;2023-05-19T14:14:56;13.00;;;7.00;;
20020;SDS011;10171;42.694;23.318;2023-05-19T14:17:22;11.57;;;7.03;;
20020;SDS011;10171;42.694;23.318;2023-05-19T14:19:47;11.40;;;7.43;;
20020;SDS011;10171;42.694;23.318;2023-05-19T14:22:12;11.63;;;7.57;;
20020;SDS011;10171;42.694;23.318;2023-05-19T14:24:38;12.90;;;8.40;;
20020;SDS011;10171;42.694;23.318;2023-05-19T14:27:03;17.17;;;10.40;;
20020;SDS011;10171;42.694;23.318;2023-05-19T14:29:28;11.30;;;8.27;;
20020;SDS011;10171;42.694;23.318;2023-05-19T14:31:55;13.68;;;9.93;;
20020;SDS011;10171;42.694;23.318;2023-05-19T14:34:20;10.65;;;8.20;;
20020;SDS011;10171;42.694;23.318;2023-05-19T14:36:45;10.05;;;7.03;;
20020;SDS011;10171;42.694;23.318;2023-05-19T14:39:11;10.35;;;7.65;;
20020;SDS011;10171;42.694;23.318;2023-05-19T14:41:37;10.40;;;7.68;;
20020;SDS011;10171;42.694;23.318;2023-05-19T14:44:02;9.85;;;7.30;;
20020;SDS011;10171;42.694;23.318;2023-05-19T14:46:28;10.73;;;7.45;;
20020;SDS011;10171;42.694;23.318;2023-05-19T14:48:53;11.38;;;7.65;;
20020;SDS011;10171;42.694;23.318;2023-05-19T14:51:18;10.48;;;7.13;;
20020;SDS011;10171;42.694;23.318;2023-05-19T14:53:44;19.67;;;10.63;;